NWWU

Details ICAO NWWU (TOU)
Name Touho
Region New Caledonia
Timezone Unknown (UTC+0.0)
Plans Departing 3
Arriving 2
Stats Elevation 10 ft / 3 m (AMSL)
Location -20.789910° 165.259305°
Runways 1
Magnetic Variation 11.858° E
Sunrise 2018-05-24 19:26:42 UTC / 2018-05-24 19:26:42 Local
Sunset 2018-05-25 06:27:53 UTC / 2018-05-25 06:27:53 Local
Advertisement - Login to hide

Runways

ID Width Length Bearing (true) Bearing (mag) Surface Threshold Offset Overrun Length
13 98 ft / 30 m 3,618 ft / 1,103 m 145.80° 133.94° Asphalt 0 ft / 0 m 0 ft / 0 m
31 98 ft / 30 m 3,618 ft / 1,103 m 325.80° 313.94° Asphalt 0 ft / 0 m 0 ft / 0 m

Map

Weather


0- 5 10 15 20 25 30 35+ Temperature / ° C

Clouds and Precipitation
Forecast for 2018-05-24 18:00 UTC. Updated an hour ago

Ground ~20,000 ft ~40,000 ft Winds

METAR

Not found

TAF

TAF NWWU 241700Z 2418/2518 16005KT 9999 SCT025 TEMPO 2418/2424 SHRA BECMG 2422/2424 12010KT

Frequencies

Recorded 121.30 MHz TOUHO FSS
Warning: Do not use this data for real-world aviation or navigation. No guarantee of current accuracy is given.